Startpagina
METAR-TAF:

METAR-TAF

Vliegvelden :

Asunción, Paraguay

Aeropuerto Internacional Silvio Pettirossi

breedte: 25-16S, lengte: 057-38W, hoogte: 101 m

Actueel weer

Dit bericht is 12 minuten geleden gemaakt, om 23:00 UTC
Wind 4 kt uit het oosten
Temperatuur 28°C
Vochtigheid 70%
Druk 1011 hPa
Zicht: 8000 m

METAR: SGAS 212300Z 09004KT 8000 NSC 28/22 Q1011

Tijdstip: 19:12 (23:12 UTC)

Verwachting

Dit bericht is 7 uur en het 8 minuten geleden gemaakt, om 16:04 UTC
Verwachting geldig van 21 om 18 UTC tot 22 om 18 UTC
Wind 8 kt uit het noordoosten
Zicht 10 km of meer
Verspreide wolken op 3300 ft
Kans 30%
van 21 om 22 UTC tot 22 om 00 UTC
Zicht: 8000 m
Wijzigt naar
van 22 om 02 UTC tot 22 om 03 UTC
Zicht 10 km of meer
geen wolken onder 1500 m en geen cumulonimbus

TAF: SGAS 211604Z 2118/2218 04008KT 9999 SCT033 TX34/2119Z TN23/2209Z PROB30 2122/2200 8000 NSC BECMG 2202/2203 CAVOK

Waarnemingen en weersverwachtingen van meer dan 4000 vliegvelden (METAR en TAF).

De beschikbare stations zijn de gele en rode punten op de kaart.

Ga met uw muis naar het station om de naam te zien.

Klik dan om waarnemingen en weersverwachtingen te zien.

kaart wijzigen: klik op de groene knoppen met een zwart kruis om in te zoomen, op de groene knop met een streepje om uit te zoomen of op de groene pijlen voor aangrenzende kaarten.


METAR-TAF: